This is the latest recevied weather packets stored in our database for station/object DL3TR-13. If no packets are shown the sender has not sent any weather packets the latest 10 day(s).
| Time | Temp. | Humidity | Pressure | Rain* | Wind** | Luminosity | Snow |
|---|---|---|---|---|---|---|---|
| 1778161390 | 14.44° C | 65% | 1013.6 hPa | 0 mm | - | 274 W/m² | - |
| 1778160790 | 15° C | 69% | 1013.6 hPa | 0 mm | - | 624 W/m² | - |
| 1778160190 | 15.56° C | 68% | 1013.6 hPa | 0 mm | - | 802 W/m² | - |
| 1778159590 | 15.56° C | 70% | 1013.6 hPa | 0 mm | - | 279 W/m² | - |
| 1778158990 | 15° C | 72% | 1013.6 hPa | 0 mm | - | 693 W/m² | - |
| 1778158390 | 15.56° C | 69% | 1013.4 hPa | 0 mm | - | 657 W/m² | - |
| 1778157789 | 15° C | 69% | 1013.6 hPa | 0 mm | - | 865 W/m² | - |
| 1778157190 | 15° C | 73% | 1013.5 hPa | 0 mm | - | 643 W/m² | - |
| 1778156589 | 15° C | 70% | 1013.5 hPa | 0 mm | - | 385 W/m² | - |
| 1778155990 | 15.56° C | 73% | 1013.4 hPa | 0 mm | - | 944 W/m² | - |
| 1778155389 | 14.44° C | 72% | 1013.6 hPa | 0 mm | - | 867 W/m² | - |
| 1778154790 | 13.89° C | 77% | 1013.7 hPa | 0 mm | - | 954 W/m² | - |
| 1778154189 | 12.78° C | 79% | 1013.8 hPa | 0 mm | - | 441 W/m² | - |
| 1778153590 | 12.78° C | 74% | 1013.7 hPa | 0 mm | - | 388 W/m² | - |
| 1778152989 | 12.78° C | 79% | 1013.8 hPa | 0 mm | - | 327 W/m² | - |
| 1778152390 | 13.33° C | 78% | 1013.9 hPa | 0 mm | - | 510 W/m² | - |
| 1778151790 | 12.22° C | 79% | 1013.9 hPa | 0 mm | - | 501 W/m² | - |
| 1778151190 | 11.67° C | 83% | 1013.9 hPa | 0 mm | - | 677 W/m² | - |
| 1778150589 | 11.11° C | 83% | 1014.1 hPa | 0 mm | - | 246 W/m² | - |
| 1778149990 | 11.11° C | 82% | 1014.1 hPa | 0 mm | - | 172 W/m² | - |
| 1778149389 | 11.67° C | 82% | 1014 hPa | 0 mm | - | 214 W/m² | - |
| 1778148790 | 11.67° C | 81% | 1014 hPa | 0 mm | - | 418 W/m² | - |
| 1778148189 | 11.67° C | 82% | 1014 hPa | 0 mm | - | 420 W/m² | - |
| 1778147589 | 11.11° C | 85% | 1014 hPa | 0 mm | - | 422 W/m² | - |
| 1778146990 | 11.67° C | 84% | 1014 hPa | 0 mm | - | 441 W/m² | - |
* Rain latest hour (hover to see other rain measurements)
** Current wind speed in m/s (hover to see current wind gust speed)